createdAt,value
2022-12-01T00:00:22.686Z,100608.41
2022-12-01T00:01:54.780Z,100604.09
2022-12-01T00:03:27.430Z,100599.84
2022-12-01T00:04:59.447Z,100601.53
2022-12-01T00:06:31.648Z,100598.09
2022-12-01T00:08:05.411Z,100600.53
2022-12-01T00:09:55.799Z,100604.84
2022-12-01T00:11:27.784Z,100599.72
2022-12-01T00:13:02.172Z,100601.53
2022-12-01T00:14:34.117Z,100598.91
2022-12-01T00:16:13.837Z,100599.03
2022-12-01T00:17:46.153Z,100597.25
2022-12-01T00:19:18.276Z,100598.16
2022-12-01T00:20:56.507Z,100595.63
2022-12-01T00:22:28.515Z,100597.28
2022-12-01T00:24:00.484Z,100601.56
2022-12-01T00:25:32.701Z,100605.84
2022-12-01T00:27:04.658Z,100602.34
2022-12-01T00:28:36.645Z,100600.63
2022-12-01T00:30:11.440Z,100600.63
2022-12-01T00:31:43.463Z,100597.16
2022-12-01T00:33:15.498Z,100605.66
2022-12-01T00:34:47.451Z,100600.50
2022-12-01T00:36:19.479Z,100596.22
2022-12-01T00:37:51.455Z,100592.78
2022-12-01T00:39:23.553Z,100599.59
2022-12-01T00:40:55.575Z,100595.34
2022-12-01T00:42:28.256Z,100597.91
2022-12-01T00:44:00.213Z,100597.00
2022-12-01T00:45:32.267Z,100601.28
2022-12-01T00:47:04.341Z,100605.50
2022-12-01T00:48:36.373Z,100599.53
2022-12-01T00:50:08.678Z,100602.13
2022-12-01T00:51:40.721Z,100599.56
2022-12-01T00:53:12.693Z,100601.22
2022-12-01T00:54:44.741Z,100596.16
2022-12-01T00:56:17.010Z,100595.25
2022-12-01T00:57:49.001Z,100591.88
2022-12-01T00:59:20.951Z,100600.47
2022-12-01T01:01:00.310Z,100596.28
2022-12-01T01:02:32.794Z,100597.94
2022-12-01T01:04:05.066Z,100598.66
2022-12-01T01:07:08.912Z,100597.03
2022-12-01T01:08:41.351Z,100593.59
2022-12-01T01:10:13.386Z,100596.16
2022-12-01T01:11:45.377Z,100590.16
2022-12-01T01:13:17.436Z,100585.88
2022-12-01T01:14:49.342Z,100593.56
2022-12-01T01:16:22.495Z,100581.66
2022-12-01T01:17:54.486Z,100583.25
2022-12-01T01:19:26.479Z,100588.41
2022-12-01T01:21:04.576Z,100591.91
2022-12-01T01:22:36.669Z,100584.88
2022-12-01T01:24:08.785Z,100577.19
2022-12-01T01:25:40.725Z,100578.09
2022-12-01T01:27:12.692Z,100579.81
2022-12-01T01:28:45.397Z,100579.81
2022-12-01T01:30:18.338Z,100569.63
2022-12-01T01:31:50.372Z,100577.31
2022-12-01T01:33:22.348Z,100572.19
2022-12-01T01:34:54.292Z,100568.72
2022-12-01T01:36:26.836Z,100566.25
2022-12-01T01:37:58.775Z,100572.19
2022-12-01T01:39:30.861Z,100568.75
2022-12-01T01:41:03.670Z,100555.06
2022-12-01T01:42:35.726Z,100559.31
2022-12-01T01:44:44.916Z,100566.28
2022-12-01T01:46:19.347Z,100565.44
2022-12-01T01:47:53.277Z,100559.44
2022-12-01T01:49:25.251Z,100554.25
2022-12-01T01:50:57.286Z,100548.22
2022-12-01T01:52:29.355Z,100557.63
2022-12-01T01:54:08.488Z,100553.44
2022-12-01T01:55:40.673Z,100553.44
2022-12-01T01:57:15.113Z,100558.59
2022-12-01T01:58:47.742Z,100561.16
2022-12-01T02:00:21.432Z,100559.50
2022-12-01T02:02:00.886Z,100558.63
2022-12-01T02:03:33.305Z,100569.75
2022-12-01T02:05:11.254Z,100561.19
2022-12-01T02:06:43.246Z,100561.16
2022-12-01T02:08:15.195Z,100556.00
2022-12-01T02:12:00.823Z,100553.50
2022-12-01T02:14:04.970Z,100547.50
2022-12-01T02:15:49.287Z,100548.34
2022-12-01T02:17:41.676Z,100561.25
2022-12-01T02:19:23.026Z,100556.81
2022-12-01T02:20:57.754Z,100555.13
2022-12-01T02:22:58.861Z,100555.13
2022-12-01T02:24:51.337Z,100554.19
2022-12-01T02:26:40.600Z,100552.50
2022-12-01T02:28:34.390Z,100544.72
2022-12-01T02:30:11.309Z,100544.63
2022-12-01T02:31:53.246Z,100540.25
2022-12-01T02:33:52.082Z,100544.56
2022-12-01T02:35:45.574Z,100535.97
2022-12-01T02:37:23.560Z,100537.66
2022-12-01T02:39:06.522Z,100542.00
2022-12-01T02:41:01.972Z,100540.28
2022-12-01T02:42:50.926Z,100542.88
2022-12-01T02:44:27.930Z,100543.66
2022-12-01T02:46:06.186Z,100540.28
2022-12-01T02:47:40.581Z,100544.59
2022-12-01T02:49:19.623Z,100548.91
2022-12-01T02:50:53.105Z,100544.66
2022-12-01T02:52:27.299Z,100548.94
2022-12-01T02:54:00.222Z,100546.44
2022-12-01T02:55:32.597Z,100543.88
2022-12-01T02:57:04.556Z,100546.44
2022-12-01T02:58:37.010Z,100539.63
2022-12-01T03:00:13.753Z,100543.88
2022-12-01T03:02:07.353Z,100549.13
2022-12-01T03:03:52.366Z,100540.53
2022-12-01T03:05:33.104Z,100547.41
2022-12-01T03:07:08.469Z,100551.69
2022-12-01T03:09:03.196Z,100556.81
2022-12-01T03:10:47.672Z,100550.50
2022-12-01T03:12:28.672Z,100552.28
2022-12-01T03:14:03.820Z,100548.91
2022-12-01T03:15:52.020Z,100547.19
2022-12-01T03:17:30.999Z,100548.88
2022-12-01T03:19:21.570Z,100536.06
2022-12-01T03:21:07.937Z,100543.72
2022-12-01T03:22:48.506Z,100544.50
2022-12-01T03:24:23.183Z,100544.44
2022-12-01T03:25:57.176Z,100547.00
2022-12-01T03:27:31.900Z,100548.69
2022-12-01T03:29:08.066Z,100552.16
2022-12-01T03:30:41.072Z,100540.97
2022-12-01T03:32:35.929Z,100546.19
2022-12-01T03:34:16.665Z,100544.38
2022-12-01T03:36:05.738Z,100547.63
2022-12-01T03:37:54.727Z,100544.94
2022-12-01T03:39:29.864Z,100550.06
2022-12-01T03:41:09.919Z,100556.91
2022-12-01T03:42:55.847Z,100555.19
2022-12-01T03:44:34.460Z,100547.50
2022-12-01T03:46:27.430Z,100548.41
2022-12-01T03:48:02.132Z,100548.25
2022-12-01T03:49:34.524Z,100544.72
2022-12-01T03:51:24.429Z,100548.22
2022-12-01T03:53:13.962Z,100546.25
2022-12-01T03:54:53.410Z,100550.56
2022-12-01T03:56:29.138Z,100548.75
2022-12-01T03:58:14.076Z,100553.03
2022-12-01T03:59:46.715Z,100545.16
2022-12-01T04:01:20.924Z,100552.56
2022-12-01T04:03:03.540Z,100555.16
2022-12-01T04:04:35.634Z,100557.66
2022-12-01T04:06:08.345Z,100547.41
2022-12-01T04:07:41.089Z,100549.97
2022-12-01T04:09:13.382Z,100557.66
2022-12-01T04:10:45.370Z,100549.91
2022-12-01T04:12:29.816Z,100554.97
2022-12-01T04:14:01.869Z,100549.81
2022-12-01T04:15:33.871Z,100553.22
2022-12-01T04:17:05.881Z,100553.19
2022-12-01T04:18:37.832Z,100549.72
2022-12-01T04:20:12.331Z,100552.38
2022-12-01T04:21:44.382Z,100553.22
2022-12-01T04:23:36.539Z,100551.53
2022-12-01T04:25:09.257Z,100550.72
2022-12-01T04:26:42.381Z,100546.44
2022-12-01T04:28:14.352Z,100546.53
2022-12-01T04:29:46.647Z,100544.88
2022-12-01T04:31:18.911Z,100548.31
2022-12-01T04:32:50.964Z,100554.31
2022-12-01T04:34:23.040Z,100556.88
2022-12-01T04:36:01.817Z,100551.81
2022-12-01T04:37:34.228Z,100555.06
2022-12-01T04:39:06.488Z,100550.88
2022-12-01T04:40:41.542Z,100562.09
2022-12-01T04:42:13.622Z,100552.56
2022-12-01T04:43:45.723Z,100561.09
2022-12-01T04:45:17.710Z,100564.47
2022-12-01T04:46:52.451Z,100565.31
2022-12-01T04:48:24.463Z,100560.94
2022-12-01T04:49:59.491Z,100559.25
2022-12-01T04:51:31.611Z,100560.97
2022-12-01T04:53:04.812Z,100561.84
2022-12-01T04:54:36.845Z,100568.63
2022-12-01T04:56:08.977Z,100560.09
2022-12-01T04:57:41.782Z,100554.94
2022-12-01T04:59:13.806Z,100549.75
2022-12-01T05:00:46.089Z,100560.84
2022-12-01T05:02:18.146Z,100551.47
2022-12-01T05:03:50.155Z,100554.09
2022-12-01T05:05:22.195Z,100553.31
2022-12-01T05:06:55.753Z,100550.75
2022-12-01T05:08:27.565Z,100557.78
2022-12-01T05:09:59.945Z,100556.81
2022-12-01T05:11:32.945Z,100552.66
2022-12-01T05:13:06.084Z,100559.50
2022-12-01T05:14:38.095Z,100561.09
2022-12-01T05:16:15.458Z,100556.09
2022-12-01T05:17:47.553Z,100556.81
2022-12-01T05:19:37.979Z,100554.19
2022-12-01T05:21:11.398Z,100553.41
2022-12-01T05:23:04.806Z,100559.34
2022-12-01T05:26:09.280Z,100557.66
2022-12-01T05:27:41.306Z,100553.31
2022-12-01T05:29:13.817Z,100553.31
2022-12-01T05:30:45.966Z,100554.16
2022-12-01T05:32:18.104Z,100549.88
2022-12-01T05:33:50.109Z,100551.56
2022-12-01T05:35:22.280Z,100549.88
2022-12-01T05:36:54.304Z,100551.56
2022-12-01T05:38:26.458Z,100543.78
2022-12-01T05:39:58.628Z,100547.25
2022-12-01T05:41:30.824Z,100548.16
2022-12-01T05:43:02.983Z,100552.38
2022-12-01T05:44:35.021Z,100552.44
2022-12-01T05:46:07.143Z,100550.72
2022-12-01T05:47:39.217Z,100553.22
2022-12-01T05:49:11.230Z,100554.13
2022-12-01T05:50:43.383Z,100547.31
2022-12-01T05:52:15.377Z,100552.47
2022-12-01T05:55:20.578Z,100547.41
2022-12-01T05:56:52.546Z,100550.84
2022-12-01T05:58:24.708Z,100550.84
2022-12-01T05:59:56.737Z,100557.59
2022-12-01T06:01:28.700Z,100554.16
2022-12-01T06:03:03.695Z,100553.28
2022-12-01T06:04:35.953Z,100556.72
2022-12-01T06:06:07.981Z,100558.44
2022-12-01T06:07:40.802Z,100554.16
2022-12-01T06:09:12.849Z,100561.09
2022-12-01T06:10:45.207Z,100562.81
2022-12-01T06:12:19.903Z,100564.41
2022-12-01T06:13:51.895Z,100565.31
2022-12-01T06:15:24.029Z,100559.31
2022-12-01T06:16:56.142Z,100558.41
2022-12-01T06:18:30.200Z,100561.91
2022-12-01T06:20:02.466Z,100561.84
2022-12-01T06:21:34.497Z,100562.72
2022-12-01T06:24:40.338Z,100565.06
2022-12-01T06:26:12.371Z,100562.47
2022-12-01T06:27:44.430Z,100568.47
2022-12-01T06:29:16.518Z,100564.25
2022-12-01T06:30:48.633Z,100564.19
2022-12-01T06:32:20.827Z,100563.28
2022-12-01T06:33:52.896Z,100568.44
2022-12-01T06:35:24.947Z,100566.72
2022-12-01T06:36:56.927Z,100562.47
2022-12-01T06:38:36.716Z,100554.84
2022-12-01T06:40:09.283Z,100562.56
2022-12-01T06:41:41.460Z,100560.81
2022-12-01T06:43:13.552Z,100558.31
2022-12-01T06:44:46.579Z,100564.25
2022-12-01T06:46:18.821Z,100566.84
2022-12-01T06:47:54.560Z,100561.84
2022-12-01T06:49:26.602Z,100572.16
2022-12-01T06:50:59.734Z,100560.19
2022-12-01T06:52:31.929Z,100572.09
2022-12-01T06:54:05.774Z,100566.22
2022-12-01T06:55:39.100Z,100565.47
2022-12-01T06:57:11.319Z,100569.72
2022-12-01T06:58:43.525Z,100570.44
2022-12-01T07:00:16.546Z,100566.84
2022-12-01T07:01:49.152Z,100565.94
2022-12-01T07:03:21.235Z,100572.75
2022-12-01T07:04:53.497Z,100572.75
2022-12-01T07:06:25.567Z,100568.38
2022-12-01T07:07:59.662Z,100576.16
2022-12-01T07:09:31.949Z,100577.00
2022-12-01T07:11:08.861Z,100570.28
2022-12-01T07:12:41.054Z,100579.53
2022-12-01T07:14:18.069Z,100564.97
2022-12-01T07:15:50.186Z,100571.66
2022-12-01T07:17:22.231Z,100571.59
2022-12-01T07:18:54.384Z,100574.06
2022-12-01T07:52:53.100Z,100578.06
2022-12-01T07:54:26.135Z,100587.25
2022-12-01T07:56:02.079Z,100581.34
2022-12-01T07:57:37.618Z,100593.22
2022-12-01T07:59:09.996Z,100580.44
2022-12-01T08:00:42.069Z,100586.50
2022-12-01T08:02:14.152Z,100591.56
2022-12-01T08:03:46.475Z,100582.88
2022-12-01T08:05:18.520Z,100590.50
2022-12-01T08:06:50.534Z,100596.34
2022-12-01T08:08:22.533Z,100590.50
2022-12-01T08:09:54.527Z,100592.31
2022-12-01T08:11:29.847Z,100588.69
2022-12-01T08:13:01.966Z,100581.91
2022-12-01T08:14:33.971Z,100586.19
2022-12-01T08:16:07.659Z,100597.00
2022-12-01T08:17:39.715Z,100594.41
2022-12-01T08:19:11.927Z,100598.47
2022-12-01T08:20:44.319Z,100594.13
2022-12-01T08:22:16.322Z,100602.84
2022-12-01T08:23:48.493Z,100604.66
2022-12-01T08:25:20.506Z,100601.19
2022-12-01T08:26:52.577Z,100600.44
2022-12-01T08:28:24.621Z,100607.22
2022-12-01T08:29:56.681Z,100601.34
2022-12-01T08:31:31.589Z,100607.34
2022-12-01T08:33:03.736Z,100602.16
2022-12-01T08:34:38.214Z,100598.75
2022-12-01T08:36:10.359Z,100601.34
2022-12-01T08:37:42.354Z,100585.22
2022-12-01T08:39:14.598Z,100596.38
2022-12-01T08:40:46.625Z,100589.59
2022-12-01T08:42:18.659Z,100596.38
2022-12-01T08:43:59.138Z,100587.84
2022-12-01T08:45:32.349Z,100584.31
2022-12-01T08:47:04.343Z,100584.22
2022-12-01T08:48:36.413Z,100581.75
2022-12-01T08:50:08.797Z,100579.22
2022-12-01T08:51:40.985Z,100586.44
2022-12-01T08:53:13.151Z,100578.03
2022-12-01T08:54:45.107Z,100574.63
2022-12-01T08:56:25.619Z,100585.63
2022-12-01T08:57:58.007Z,100583.25
2022-12-01T08:59:30.066Z,100591.88
2022-12-01T09:01:03.917Z,100580.97
2022-12-01T09:02:36.004Z,100588.50
2022-12-01T09:04:09.159Z,100579.88
2022-12-01T09:05:43.661Z,100581.91
2022-12-01T09:07:19.134Z,100572.50
2022-12-01T09:08:54.923Z,100583.66
2022-12-01T09:10:27.041Z,100570.78
2022-12-01T09:11:59.102Z,100574.25
2022-12-01T09:13:32.375Z,100574.19
2022-12-01T09:15:04.744Z,100573.41
2022-12-01T09:16:36.918Z,100569.97
2022-12-01T09:18:09.091Z,100576.94
2022-12-01T09:19:41.126Z,100564.06
2022-12-01T09:21:15.898Z,100563.41
2022-12-01T09:22:47.995Z,100572.75
2022-12-01T09:24:20.042Z,100570.19
2022-12-01T09:25:53.047Z,100558.34
2022-12-01T09:27:25.243Z,100563.47
2022-12-01T09:29:01.427Z,100555.91
2022-12-01T09:30:35.432Z,100560.22
2022-12-01T09:32:10.103Z,100554.09
2022-12-01T09:33:42.212Z,100569.59
2022-12-01T09:35:14.418Z,100557.69
2022-12-01T09:36:47.479Z,100557.75
2022-12-01T09:38:19.519Z,100562.06
2022-12-01T09:39:51.722Z,100562.16
2022-12-01T09:41:26.098Z,100558.81
2022-12-01T09:42:59.730Z,100555.41
2022-12-01T09:44:40.028Z,100558.91
2022-12-01T09:47:51.011Z,100546.88
2022-12-01T09:49:26.999Z,100550.41
2022-12-01T09:50:59.176Z,100546.81
2022-12-01T09:53:04.564Z,100545.25
2022-12-01T09:54:36.583Z,100553.72
2022-12-01T09:56:18.105Z,100547.88
2022-12-01T09:57:52.998Z,100544.50
2022-12-01T09:59:28.128Z,100550.47
2022-12-01T10:01:00.804Z,100548.53
2022-12-01T10:02:41.424Z,100550.28
2022-12-01T10:04:47.015Z,100541.94
2022-12-01T10:06:30.257Z,100540.25
2022-12-01T10:08:05.896Z,100540.03
2022-12-01T10:10:04.264Z,100531.38
2022-12-01T10:11:43.074Z,100539.94
2022-12-01T10:13:26.679Z,100539.94
2022-12-01T10:15:24.710Z,100535.69
2022-12-01T10:17:28.045Z,100538.28
2022-12-01T10:19:13.974Z,100536.63
2022-12-01T10:21:07.487Z,100540.06
2022-12-01T10:22:46.134Z,100538.25
2022-12-01T10:24:28.376Z,100538.25
2022-12-01T10:26:07.928Z,100534.06
2022-12-01T10:28:01.242Z,100536.72
2022-12-01T10:29:53.099Z,100538.53
2022-12-01T10:31:58.532Z,100541.09
2022-12-01T10:33:32.771Z,100540.28
2022-12-01T10:35:05.173Z,100533.41
2022-12-01T10:36:37.257Z,100531.75
2022-12-01T10:38:15.701Z,100537.78
2022-12-01T10:39:49.986Z,100530.09
2022-12-01T10:41:25.051Z,100535.22
2022-12-01T10:42:57.208Z,100522.34
2022-12-01T10:44:29.817Z,100526.63
2022-12-01T10:46:06.647Z,100519.72
2022-12-01T10:47:38.709Z,100522.34
2022-12-01T10:49:12.727Z,100530.00
2022-12-01T10:50:45.803Z,100527.44
2022-12-01T10:52:32.740Z,100532.72
2022-12-01T10:54:12.010Z,100526.84
2022-12-01T10:55:47.923Z,100525.03
2022-12-01T10:57:20.371Z,100525.88
2022-12-01T10:58:54.884Z,100528.44
2022-12-01T11:02:25.084Z,100516.44
2022-12-01T11:04:01.909Z,100519.09
2022-12-01T11:05:39.639Z,100521.66
2022-12-01T11:07:26.150Z,100516.69
2022-12-01T11:09:01.235Z,100510.53
2022-12-01T11:10:34.047Z,100514.75
2022-12-01T11:12:06.187Z,100511.28
2022-12-01T11:13:38.341Z,100516.44
2022-12-01T11:15:21.623Z,100508.81
2022-12-01T11:16:54.407Z,100514.59
2022-12-01T11:18:34.853Z,100512.19
2022-12-01T11:20:30.203Z,100504.66
2022-12-01T11:22:17.903Z,100514.00
2022-12-01T11:23:52.280Z,100511.56
2022-12-01T11:25:27.097Z,100511.53
2022-12-01T11:26:59.765Z,100515.56
2022-12-01T11:28:33.558Z,100519.84
2022-12-01T11:30:10.918Z,100512.19
2022-12-01T11:31:46.869Z,100507.91
2022-12-01T11:33:19.040Z,100512.22
2022-12-01T11:34:58.796Z,100505.53
2022-12-01T11:36:38.617Z,100503.03
2022-12-01T11:38:30.164Z,100505.41
2022-12-01T11:40:25.733Z,100504.66
2022-12-01T11:42:03.213Z,100509.72
2022-12-01T11:43:37.067Z,100512.34
2022-12-01T11:45:21.391Z,100509.91
2022-12-01T11:50:27.393Z,100509.91
2022-12-01T11:52:16.628Z,100502.22
2022-12-01T11:54:06.821Z,100509.81
2022-12-01T11:55:38.884Z,100506.22
2022-12-01T11:57:33.204Z,100510.53
2022-12-01T11:59:05.641Z,100504.69
2022-12-01T12:00:51.254Z,100510.72
2022-12-01T12:02:35.366Z,100512.31
2022-12-01T12:04:10.173Z,100512.38
2022-12-01T12:06:05.896Z,100511.63
2022-12-01T12:08:01.142Z,100510.72
2022-12-01T12:09:45.856Z,100503.78
2022-12-01T12:11:20.675Z,100508.72
2022-12-01T12:13:07.671Z,100507.88
2022-12-01T12:15:07.559Z,100511.34
2022-12-01T12:17:01.540Z,100508.88
2022-12-01T12:19:22.527Z,100510.56
2022-12-01T12:21:28.665Z,100505.31
2022-12-01T12:23:06.578Z,100513.59
2022-12-01T12:25:10.896Z,100506.88
2022-12-01T12:26:47.356Z,100507.59
2022-12-01T12:29:07.148Z,100512.00
2022-12-01T12:30:52.001Z,100511.84
2022-12-01T12:32:32.884Z,100515.97
2022-12-01T12:34:13.347Z,100518.44
2022-12-01T12:36:04.242Z,100514.25
2022-12-01T12:38:05.475Z,100518.44
2022-12-01T12:39:46.350Z,100510.75
2022-12-01T12:41:29.956Z,100509.94
2022-12-01T12:43:04.708Z,100510.63
2022-12-01T12:45:06.543Z,100519.28
2022-12-01T12:46:58.056Z,100511.66
2022-12-01T12:48:57.264Z,100513.41
2022-12-01T12:50:58.507Z,100504.13
2022-12-01T12:52:49.064Z,100505.78
2022-12-01T12:54:21.087Z,100509.19
2022-12-01T12:55:56.685Z,100499.78
2022-12-01T12:57:37.955Z,100505.13
2022-12-01T12:59:24.128Z,100512.00
2022-12-01T13:01:11.444Z,100505.22
2022-12-01T13:03:06.390Z,100501.81
2022-12-01T13:04:45.970Z,100503.56
2022-12-01T13:06:26.633Z,100505.06
2022-12-01T13:08:04.808Z,100503.34
2022-12-01T13:09:41.076Z,100503.31
2022-12-01T13:11:29.496Z,100504.28
2022-12-01T13:13:12.389Z,100506.03
2022-12-01T13:14:50.340Z,100501.66
2022-12-01T13:16:37.353Z,100500.75
2022-12-01T13:18:26.140Z,100501.66
2022-12-01T13:19:58.303Z,100502.47
2022-12-01T13:21:37.450Z,100498.34
2022-12-01T13:23:13.673Z,100490.69
2022-12-01T13:24:45.666Z,100497.44
2022-12-01T13:26:19.183Z,100487.22
2022-12-01T13:29:33.572Z,100501.81
2022-12-01T13:31:07.224Z,100496.66
2022-12-01T13:32:40.920Z,100494.97
2022-12-01T13:34:39.532Z,100496.81
2022-12-01T13:36:45.277Z,100497.59
2022-12-01T13:38:30.636Z,100496.84
2022-12-01T13:40:16.695Z,100499.38
2022-12-01T13:41:59.580Z,100501.03
2022-12-01T13:43:32.439Z,100501.00
2022-12-01T13:45:18.113Z,100500.28
2022-12-01T13:47:02.234Z,100501.06
2022-12-01T13:48:40.114Z,100503.66
2022-12-01T13:52:22.664Z,100503.56
2022-12-01T13:54:30.180Z,100501.56
2022-12-01T13:56:07.604Z,100506.78
2022-12-01T13:57:59.157Z,100504.28
2022-12-01T14:00:00.148Z,100511.13
2022-12-01T14:01:46.662Z,100504.31
2022-12-01T14:03:21.861Z,100500.00
2022-12-01T14:04:54.217Z,100504.19
2022-12-01T14:06:26.228Z,100499.88
2022-12-01T14:08:01.210Z,100493.91
2022-12-01T14:09:39.042Z,100493.91
2022-12-01T14:11:23.411Z,100492.00
2022-12-01T14:12:58.525Z,100485.97
2022-12-01T14:14:36.425Z,100489.38
2022-12-01T14:16:08.735Z,100490.06
2022-12-01T14:17:41.983Z,100483.13
2022-12-01T14:19:37.565Z,100490.91
2022-12-01T14:21:11.764Z,100490.81
2022-12-01T14:23:03.912Z,100496.78
2022-12-01T14:24:41.987Z,100502.66
2022-12-01T14:26:21.616Z,100493.25
2022-12-01T14:27:59.301Z,100496.63
2022-12-01T14:29:34.134Z,100497.38
2022-12-01T14:31:06.338Z,100498.16
2022-12-01T14:32:38.461Z,100498.81
2022-12-01T14:34:19.405Z,100491.94
2022-12-01T14:35:52.540Z,100496.25
2022-12-01T14:37:28.024Z,100489.53
2022-12-01T14:38:59.931Z,100497.13
2022-12-01T14:40:32.236Z,100487.63
2022-12-01T14:43:10.908Z,100492.00
2022-12-01T14:44:45.528Z,100501.34
2022-12-01T14:46:23.726Z,100502.16
2022-12-01T14:48:09.486Z,100497.09
2022-12-01T14:49:47.961Z,100502.22
2022-12-01T14:51:27.667Z,100497.09
2022-12-01T14:53:07.051Z,100497.88
2022-12-01T14:54:47.534Z,100502.88
2022-12-01T14:56:21.151Z,100502.06
2022-12-01T14:58:01.606Z,100498.56
2022-12-01T14:59:33.653Z,100504.47
2022-12-01T15:01:12.661Z,100500.16
2022-12-01T15:02:50.014Z,100511.34
2022-12-01T15:04:22.194Z,100502.81
2022-12-01T15:05:55.043Z,100509.53
2022-12-01T15:07:27.389Z,100508.66
2022-12-01T15:11:18.026Z,100489.72
2022-12-01T15:12:51.517Z,100518.16
2022-12-01T15:14:30.926Z,100520.56
2022-12-01T15:16:14.515Z,100517.31
2022-12-01T15:17:47.166Z,100521.50
2022-12-01T15:19:29.242Z,100521.63
2022-12-01T15:21:08.390Z,100520.59
2022-12-01T15:22:41.171Z,100516.34
2022-12-01T15:24:31.335Z,100523.25
2022-12-01T15:26:04.137Z,100518.06
2022-12-01T15:27:36.240Z,100518.06
2022-12-01T15:29:23.103Z,100518.31
2022-12-01T15:30:55.318Z,100517.34
2022-12-01T15:32:27.561Z,100519.13
2022-12-01T15:33:59.885Z,100524.22
2022-12-01T15:35:32.004Z,100516.50
2022-12-01T15:37:06.680Z,100516.56
2022-12-01T15:38:39.343Z,100524.28
2022-12-01T15:42:35.864Z,100512.47
2022-12-01T15:44:19.383Z,100521.09
2022-12-01T15:47:48.454Z,100508.09
2022-12-01T15:49:30.106Z,100515.91
2022-12-01T15:51:20.986Z,100521.03
2022-12-01T15:52:52.963Z,100528.59
2022-12-01T15:54:26.697Z,100520.13
2022-12-01T15:55:59.506Z,100522.66
2022-12-01T15:57:31.757Z,100515.75
2022-12-01T15:59:10.079Z,100520.03
2022-12-01T16:00:42.288Z,100523.31
2022-12-01T16:02:20.568Z,100523.41
2022-12-01T16:04:17.143Z,100530.25
2022-12-01T16:05:49.234Z,100531.69
2022-12-01T16:07:21.299Z,100528.31
2022-12-01T16:09:32.385Z,100534.47
2022-12-01T16:11:16.195Z,100531.91
2022-12-01T16:12:48.232Z,100536.81
2022-12-01T16:14:24.971Z,100531.00
2022-12-01T16:15:57.211Z,100530.94
2022-12-01T16:17:45.352Z,100525.09
2022-12-01T16:19:17.379Z,100528.31
2022-12-01T16:20:50.477Z,100524.06
2022-12-01T16:22:22.884Z,100520.56
2022-12-01T16:24:02.875Z,100526.69
2022-12-01T16:25:40.298Z,100524.88
2022-12-01T16:27:30.012Z,100531.69
2022-12-01T16:29:02.083Z,100521.34
2022-12-01T16:30:39.212Z,100529.13
2022-12-01T16:32:21.028Z,100525.81
2022-12-01T16:34:18.510Z,100527.47
2022-12-01T16:35:56.217Z,100528.22
2022-12-01T16:37:28.333Z,100532.47
2022-12-01T16:39:00.291Z,100535.03
2022-12-01T16:40:32.441Z,100533.22
2022-12-01T16:42:04.815Z,100528.91
2022-12-01T16:43:37.029Z,100539.19
2022-12-01T16:45:15.051Z,100536.63
2022-12-01T16:46:47.158Z,100542.53
2022-12-01T16:48:20.675Z,100540.84
2022-12-01T16:49:53.218Z,100543.44
2022-12-01T16:51:35.560Z,100549.31
2022-12-01T16:53:17.351Z,100548.44
2022-12-01T16:54:50.122Z,100542.44
2022-12-01T16:56:22.404Z,100540.72
2022-12-01T16:57:55.810Z,100537.31
2022-12-01T16:59:28.016Z,100545.84
2022-12-01T17:01:00.330Z,100546.69
2022-12-01T17:02:32.515Z,100541.47
2022-12-01T17:04:07.566Z,100550.03
2022-12-01T17:05:40.529Z,100544.91
2022-12-01T17:07:12.584Z,100539.81
2022-12-01T17:08:44.699Z,100545.78
2022-12-01T17:10:18.000Z,100550.94
2022-12-01T17:11:50.151Z,100549.19
2022-12-01T17:13:25.816Z,100541.53
2022-12-01T17:14:58.036Z,100544.88
2022-12-01T17:16:30.064Z,100544.81
2022-12-01T17:18:02.076Z,100548.28
2022-12-01T17:19:34.197Z,100552.53
2022-12-01T17:21:09.041Z,100552.66
2022-12-01T17:22:41.025Z,100552.53
2022-12-01T17:24:17.544Z,100549.94
2022-12-01T17:25:51.068Z,100554.19
2022-12-01T17:27:27.973Z,100555.16
2022-12-01T17:29:03.059Z,100555.09
2022-12-01T17:30:37.020Z,100550.88
2022-12-01T17:32:09.577Z,100564.53
2022-12-01T17:33:41.820Z,100558.56
2022-12-01T17:35:13.957Z,100563.66
2022-12-01T17:36:45.942Z,100555.09
2022-12-01T17:38:17.960Z,100562.75
2022-12-01T17:39:50.490Z,100560.19
2022-12-01T17:41:24.175Z,100567.88
2022-12-01T17:42:56.320Z,100565.31
2022-12-01T17:44:28.396Z,100562.81
2022-12-01T17:46:00.787Z,100563.72
2022-12-01T17:47:32.821Z,100561.06
2022-12-01T17:49:09.850Z,100559.41
2022-12-01T17:50:41.882Z,100553.44
2022-12-01T17:52:14.328Z,100552.59
2022-12-01T17:53:46.796Z,100562.00
2022-12-01T17:55:19.923Z,100550.03
2022-12-01T17:56:52.055Z,100556.91
2022-12-01T17:58:24.447Z,100555.16
2022-12-01T17:59:56.480Z,100558.56
2022-12-01T18:01:30.672Z,100553.50
2022-12-01T18:03:02.964Z,100553.44
2022-12-01T18:04:35.075Z,100556.81
2022-12-01T18:06:07.389Z,100561.09
2022-12-01T18:07:39.645Z,100551.63
2022-12-01T18:09:11.729Z,100556.81
2022-12-01T18:10:43.767Z,100552.50
2022-12-01T18:12:15.768Z,100559.28
2022-12-01T18:13:50.136Z,100559.38
2022-12-01T18:15:22.192Z,100551.53
2022-12-01T18:16:54.211Z,100550.66
2022-12-01T18:18:26.322Z,100554.09
2022-12-01T18:19:58.422Z,100554.13
2022-12-01T18:21:30.491Z,100557.53
2022-12-01T18:23:02.492Z,100559.19
2022-12-01T18:24:34.568Z,100556.56
2022-12-01T18:26:15.668Z,100559.25
2022-12-01T18:27:48.511Z,100548.00
2022-12-01T18:29:28.949Z,100558.34
2022-12-01T18:31:08.865Z,100561.00
2022-12-01T18:32:41.101Z,100565.16
2022-12-01T18:34:13.110Z,100570.25
2022-12-01T18:35:45.202Z,100561.69
2022-12-01T18:37:17.259Z,100566.84
2022-12-01T18:38:50.344Z,100564.41
2022-12-01T18:40:23.485Z,100569.50
2022-12-01T18:41:55.556Z,100569.50
2022-12-01T18:43:30.805Z,100561.91
2022-12-01T18:45:02.873Z,100569.56
2022-12-01T18:46:35.352Z,100563.63
2022-12-01T18:48:07.618Z,100572.13
2022-12-01T18:49:39.645Z,100563.66
2022-12-01T18:51:12.455Z,100572.25
2022-12-01T18:52:44.564Z,100571.38
2022-12-01T18:54:16.990Z,100571.38
2022-12-01T18:55:51.035Z,100566.34
2022-12-01T18:57:23.096Z,100563.72
2022-12-01T18:58:56.450Z,100573.19
2022-12-01T19:00:28.678Z,100579.16
2022-12-01T19:02:00.768Z,100576.63
2022-12-01T19:03:33.110Z,100575.03
2022-12-01T19:05:05.397Z,100572.47
2022-12-01T19:06:39.169Z,100580.19
2022-12-01T19:08:11.306Z,100581.06
2022-12-01T19:09:43.442Z,100581.91
2022-12-01T19:11:15.874Z,100572.56
2022-12-01T19:12:47.994Z,100580.16
2022-12-01T19:15:53.408Z,100580.19
2022-12-01T19:17:25.627Z,100584.41
2022-12-01T19:18:57.989Z,100573.22
2022-12-01T19:20:29.994Z,100583.44
2022-12-01T19:22:01.976Z,100580.06
2022-12-01T19:23:34.594Z,100585.25
2022-12-01T19:25:07.104Z,100586.09